sensor_id;sensor_type;location;lat;lon;timestamp;temperature;humidity
39519;DHT22;25200;53.394;10.414;2024-01-15T00:01:56;3.00;95.20
39519;DHT22;25200;53.394;10.414;2024-01-15T00:04:22;3.00;95.20
39519;DHT22;25200;53.394;10.414;2024-01-15T00:06:49;3.00;95.20
39519;DHT22;25200;53.394;10.414;2024-01-15T00:09:14;3.00;95.20
39519;DHT22;25200;53.394;10.414;2024-01-15T00:11:41;3.00;95.20
39519;DHT22;25200;53.394;10.414;2024-01-15T00:14:08;3.00;95.20
39519;DHT22;25200;53.394;10.414;2024-01-15T00:16:33;2.90;95.20
39519;DHT22;25200;53.394;10.414;2024-01-15T00:18:59;2.90;95.20
39519;DHT22;25200;53.394;10.414;2024-01-15T00:21:25;2.90;95.20
39519;DHT22;25200;53.394;10.414;2024-01-15T00:23:50;2.90;95.20
39519;DHT22;25200;53.394;10.414;2024-01-15T00:26:16;2.90;95.20
39519;DHT22;25200;53.394;10.414;2024-01-15T00:28:42;2.90;95.20
39519;DHT22;25200;53.394;10.414;2024-01-15T00:31:08;2.90;95.20
39519;DHT22;25200;53.394;10.414;2024-01-15T00:33:34;3.00;95.20
39519;DHT22;25200;53.394;10.414;2024-01-15T00:36:00;3.00;95.20
39519;DHT22;25200;53.394;10.414;2024-01-15T00:38:26;2.90;95.20
39519;DHT22;25200;53.394;10.414;2024-01-15T00:40:52;3.00;95.20
39519;DHT22;25200;53.394;10.414;2024-01-15T00:43:17;3.00;95.20
39519;DHT22;25200;53.394;10.414;2024-01-15T00:45:45;3.00;95.20
39519;DHT22;25200;53.394;10.414;2024-01-15T00:48:10;3.00;95.50
39519;DHT22;25200;53.394;10.414;2024-01-15T00:50:36;3.00;95.30
39519;DHT22;25200;53.394;10.414;2024-01-15T00:53:02;3.00;95.30
39519;DHT22;25200;53.394;10.414;2024-01-15T00:55:28;3.00;95.30
39519;DHT22;25200;53.394;10.414;2024-01-15T00:57:55;3.00;95.30
39519;DHT22;25200;53.394;10.414;2024-01-15T01:00:20;3.00;95.30
39519;DHT22;25200;53.394;10.414;2024-01-15T01:02:46;3.00;95.20
39519;DHT22;25200;53.394;10.414;2024-01-15T01:05:12;3.00;95.20
39519;DHT22;25200;53.394;10.414;2024-01-15T01:07:38;3.00;95.20
39519;DHT22;25200;53.394;10.414;2024-01-15T01:10:04;2.90;95.30
39519;DHT22;25200;53.394;10.414;2024-01-15T01:12:30;2.90;95.30
39519;DHT22;25200;53.394;10.414;2024-01-15T01:14:55;2.90;95.20
39519;DHT22;25200;53.394;10.414;2024-01-15T01:17:22;2.90;95.20
39519;DHT22;25200;53.394;10.414;2024-01-15T01:19:47;2.90;95.20
39519;DHT22;25200;53.394;10.414;2024-01-15T01:22:13;2.90;95.20
39519;DHT22;25200;53.394;10.414;2024-01-15T01:24:38;2.90;95.20
39519;DHT22;25200;53.394;10.414;2024-01-15T01:27:04;2.90;95.30
39519;DHT22;25200;53.394;10.414;2024-01-15T01:29:30;2.90;95.20
39519;DHT22;25200;53.394;10.414;2024-01-15T01:31:55;2.90;95.20
39519;DHT22;25200;53.394;10.414;2024-01-15T01:34:22;2.90;95.10
39519;DHT22;25200;53.394;10.414;2024-01-15T01:36:47;2.90;95.10
39519;DHT22;25200;53.394;10.414;2024-01-15T01:39:13;2.90;95.10
39519;DHT22;25200;53.394;10.414;2024-01-15T01:41:39;2.90;95.10
39519;DHT22;25200;53.394;10.414;2024-01-15T01:44:05;2.90;95.20
39519;DHT22;25200;53.394;10.414;2024-01-15T01:46:31;2.90;95.20
39519;DHT22;25200;53.394;10.414;2024-01-15T01:48:57;2.90;95.20
39519;DHT22;25200;53.394;10.414;2024-01-15T01:51:24;2.90;95.20
39519;DHT22;25200;53.394;10.414;2024-01-15T01:53:50;2.90;95.20
39519;DHT22;25200;53.394;10.414;2024-01-15T01:56:17;2.90;95.20
39519;DHT22;25200;53.394;10.414;2024-01-15T01:58:46;2.90;95.20
39519;DHT22;25200;53.394;10.414;2024-01-15T02:01:13;3.00;95.20
39519;DHT22;25200;53.394;10.414;2024-01-15T02:03:40;2.90;95.10
39519;DHT22;25200;53.394;10.414;2024-01-15T02:06:06;2.90;95.10
39519;DHT22;25200;53.394;10.414;2024-01-15T02:08:31;2.90;95.10
39519;DHT22;25200;53.394;10.414;2024-01-15T02:10:58;2.90;95.10
39519;DHT22;25200;53.394;10.414;2024-01-15T02:13:23;2.90;95.20
39519;DHT22;25200;53.394;10.414;2024-01-15T02:15:49;2.90;95.20
39519;DHT22;25200;53.394;10.414;2024-01-15T02:18:15;2.90;95.20
39519;DHT22;25200;53.394;10.414;2024-01-15T02:20:40;2.90;95.20
39519;DHT22;25200;53.394;10.414;2024-01-15T02:23:11;2.90;95.20
39519;DHT22;25200;53.394;10.414;2024-01-15T02:25:39;2.90;95.20
39519;DHT22;25200;53.394;10.414;2024-01-15T02:28:06;2.90;95.20
39519;DHT22;25200;53.394;10.414;2024-01-15T02:30:36;2.90;95.20
39519;DHT22;25200;53.394;10.414;2024-01-15T02:33:03;2.90;95.20
39519;DHT22;25200;53.394;10.414;2024-01-15T02:35:29;2.90;95.20
39519;DHT22;25200;53.394;10.414;2024-01-15T02:37:54;2.90;95.20
39519;DHT22;25200;53.394;10.414;2024-01-15T02:40:20;2.90;95.30
39519;DHT22;25200;53.394;10.414;2024-01-15T02:42:46;2.90;95.20
39519;DHT22;25200;53.394;10.414;2024-01-15T02:45:11;2.90;95.20
39519;DHT22;25200;53.394;10.414;2024-01-15T02:47:37;3.00;95.30
39519;DHT22;25200;53.394;10.414;2024-01-15T02:50:03;3.00;95.20
39519;DHT22;25200;53.394;10.414;2024-01-15T02:52:29;3.00;95.20
39519;DHT22;25200;53.394;10.414;2024-01-15T02:54:54;3.00;95.20
39519;DHT22;25200;53.394;10.414;2024-01-15T02:57:20;3.00;95.20
39519;DHT22;25200;53.394;10.414;2024-01-15T02:59:46;3.00;95.20
39519;DHT22;25200;53.394;10.414;2024-01-15T03:02:11;3.00;95.20
39519;DHT22;25200;53.394;10.414;2024-01-15T03:04:37;3.00;95.20
39519;DHT22;25200;53.394;10.414;2024-01-15T03:07:03;3.00;95.30
39519;DHT22;25200;53.394;10.414;2024-01-15T03:09:28;3.00;95.20
39519;DHT22;25200;53.394;10.414;2024-01-15T03:11:54;3.00;95.30
39519;DHT22;25200;53.394;10.414;2024-01-15T03:14:20;3.00;95.20
39519;DHT22;25200;53.394;10.414;2024-01-15T03:16:45;3.00;95.20
39519;DHT22;25200;53.394;10.414;2024-01-15T03:19:11;3.00;95.20
39519;DHT22;25200;53.394;10.414;2024-01-15T03:21:37;3.00;95.20
39519;DHT22;25200;53.394;10.414;2024-01-15T03:24:02;3.00;95.30
39519;DHT22;25200;53.394;10.414;2024-01-15T03:26:28;3.00;95.30
39519;DHT22;25200;53.394;10.414;2024-01-15T03:28:54;3.00;95.30
39519;DHT22;25200;53.394;10.414;2024-01-15T03:31:19;3.00;95.20
39519;DHT22;25200;53.394;10.414;2024-01-15T03:33:48;3.00;95.30
39519;DHT22;25200;53.394;10.414;2024-01-15T03:36:14;3.00;95.20
39519;DHT22;25200;53.394;10.414;2024-01-15T03:38:42;3.00;95.20
39519;DHT22;25200;53.394;10.414;2024-01-15T03:41:08;3.00;95.20
39519;DHT22;25200;53.394;10.414;2024-01-15T03:43:33;3.00;95.30
39519;DHT22;25200;53.394;10.414;2024-01-15T03:45:59;3.00;95.20
39519;DHT22;25200;53.394;10.414;2024-01-15T03:48:25;3.00;95.20
39519;DHT22;25200;53.394;10.414;2024-01-15T03:50:51;3.00;95.20
39519;DHT22;25200;53.394;10.414;2024-01-15T03:53:16;3.00;95.20
39519;DHT22;25200;53.394;10.414;2024-01-15T03:55:42;3.00;95.20
39519;DHT22;25200;53.394;10.414;2024-01-15T03:58:08;2.90;95.20
39519;DHT22;25200;53.394;10.414;2024-01-15T04:00:34;2.90;95.20
39519;DHT22;25200;53.394;10.414;2024-01-15T04:02:59;2.90;95.20
39519;DHT22;25200;53.394;10.414;2024-01-15T04:05:25;2.90;95.20
39519;DHT22;25200;53.394;10.414;2024-01-15T04:07:51;2.90;95.20
39519;DHT22;25200;53.394;10.414;2024-01-15T04:10:17;2.90;95.20
39519;DHT22;25200;53.394;10.414;2024-01-15T04:12:42;2.80;95.20
39519;DHT22;25200;53.394;10.414;2024-01-15T04:15:08;2.80;95.20
39519;DHT22;25200;53.394;10.414;2024-01-15T04:17:34;2.80;95.20
39519;DHT22;25200;53.394;10.414;2024-01-15T04:19:59;2.80;95.20
39519;DHT22;25200;53.394;10.414;2024-01-15T04:22:26;2.80;95.30
39519;DHT22;25200;53.394;10.414;2024-01-15T04:24:52;2.80;95.30
39519;DHT22;25200;53.394;10.414;2024-01-15T04:27:17;2.80;95.30
39519;DHT22;25200;53.394;10.414;2024-01-15T04:29:43;2.80;95.20
39519;DHT22;25200;53.394;10.414;2024-01-15T04:32:10;2.80;95.30
39519;DHT22;25200;53.394;10.414;2024-01-15T04:34:36;2.80;95.20
39519;DHT22;25200;53.394;10.414;2024-01-15T04:37:01;2.80;95.20
39519;DHT22;25200;53.394;10.414;2024-01-15T04:39:27;2.80;95.20
39519;DHT22;25200;53.394;10.414;2024-01-15T04:41:52;2.80;95.20
39519;DHT22;25200;53.394;10.414;2024-01-15T04:44:18;2.80;95.20
39519;DHT22;25200;53.394;10.414;2024-01-15T04:46:44;2.80;95.20
39519;DHT22;25200;53.394;10.414;2024-01-15T04:49:11;2.80;95.20
39519;DHT22;25200;53.394;10.414;2024-01-15T04:51:36;2.80;95.20
39519;DHT22;25200;53.394;10.414;2024-01-15T04:54:02;2.80;95.20
39519;DHT22;25200;53.394;10.414;2024-01-15T04:56:28;2.80;95.20
39519;DHT22;25200;53.394;10.414;2024-01-15T04:58:53;2.70;95.20
39519;DHT22;25200;53.394;10.414;2024-01-15T05:01:19;2.70;95.20
39519;DHT22;25200;53.394;10.414;2024-01-15T05:03:44;2.70;95.20
39519;DHT22;25200;53.394;10.414;2024-01-15T05:06:10;2.70;95.20
39519;DHT22;25200;53.394;10.414;2024-01-15T05:08:36;2.70;95.20
39519;DHT22;25200;53.394;10.414;2024-01-15T05:11:01;2.70;95.20
39519;DHT22;25200;53.394;10.414;2024-01-15T05:13:27;2.70;95.20
39519;DHT22;25200;53.394;10.414;2024-01-15T05:15:53;2.70;95.20
39519;DHT22;25200;53.394;10.414;2024-01-15T05:18:19;2.70;95.20
39519;DHT22;25200;53.394;10.414;2024-01-15T05:20:45;2.70;95.20
39519;DHT22;25200;53.394;10.414;2024-01-15T05:23:10;2.70;95.20
39519;DHT22;25200;53.394;10.414;2024-01-15T05:25:36;2.70;95.20
39519;DHT22;25200;53.394;10.414;2024-01-15T05:28:02;2.70;95.20
39519;DHT22;25200;53.394;10.414;2024-01-15T05:30:28;2.70;95.20
39519;DHT22;25200;53.394;10.414;2024-01-15T05:32:54;2.70;95.20
39519;DHT22;25200;53.394;10.414;2024-01-15T05:35:19;2.70;95.20
39519;DHT22;25200;53.394;10.414;2024-01-15T05:37:46;2.70;95.20
39519;DHT22;25200;53.394;10.414;2024-01-15T05:40:12;2.70;95.20
39519;DHT22;25200;53.394;10.414;2024-01-15T05:42:41;2.70;95.20
39519;DHT22;25200;53.394;10.414;2024-01-15T05:45:07;2.70;95.20
39519;DHT22;25200;53.394;10.414;2024-01-15T05:47:33;2.70;95.20
39519;DHT22;25200;53.394;10.414;2024-01-15T05:50:01;2.70;95.20
39519;DHT22;25200;53.394;10.414;2024-01-15T05:52:27;2.60;95.20
39519;DHT22;25200;53.394;10.414;2024-01-15T05:54:52;2.60;95.20
39519;DHT22;25200;53.394;10.414;2024-01-15T05:57:18;2.70;95.30
39519;DHT22;25200;53.394;10.414;2024-01-15T05:59:44;2.70;95.30
39519;DHT22;25200;53.394;10.414;2024-01-15T06:02:10;2.70;95.30
39519;DHT22;25200;53.394;10.414;2024-01-15T06:04:36;2.70;95.30
39519;DHT22;25200;53.394;10.414;2024-01-15T06:07:02;2.70;95.30
39519;DHT22;25200;53.394;10.414;2024-01-15T06:09:27;2.70;95.30
39519;DHT22;25200;53.394;10.414;2024-01-15T06:11:53;2.70;95.20
39519;DHT22;25200;53.394;10.414;2024-01-15T06:14:19;2.70;95.30
39519;DHT22;25200;53.394;10.414;2024-01-15T06:16:45;2.70;95.20
39519;DHT22;25200;53.394;10.414;2024-01-15T06:19:10;2.70;95.30
39519;DHT22;25200;53.394;10.414;2024-01-15T06:21:36;2.70;95.20
39519;DHT22;25200;53.394;10.414;2024-01-15T06:24:02;2.70;95.20
39519;DHT22;25200;53.394;10.414;2024-01-15T06:26:27;2.70;95.20
39519;DHT22;25200;53.394;10.414;2024-01-15T06:28:53;2.70;95.20
39519;DHT22;25200;53.394;10.414;2024-01-15T06:31:18;2.70;95.20
39519;DHT22;25200;53.394;10.414;2024-01-15T06:33:44;2.70;95.30
39519;DHT22;25200;53.394;10.414;2024-01-15T06:36:12;2.70;95.20
39519;DHT22;25200;53.394;10.414;2024-01-15T06:38:38;2.70;95.20
39519;DHT22;25200;53.394;10.414;2024-01-15T06:41:04;2.70;95.20
39519;DHT22;25200;53.394;10.414;2024-01-15T06:43:29;2.70;95.20
39519;DHT22;25200;53.394;10.414;2024-01-15T06:45:55;2.70;95.20
39519;DHT22;25200;53.394;10.414;2024-01-15T06:48:21;2.70;95.20
39519;DHT22;25200;53.394;10.414;2024-01-15T06:50:46;2.70;95.20
39519;DHT22;25200;53.394;10.414;2024-01-15T06:53:12;2.70;95.20
39519;DHT22;25200;53.394;10.414;2024-01-15T06:55:38;2.70;95.20
39519;DHT22;25200;53.394;10.414;2024-01-15T06:58:04;2.70;95.20
39519;DHT22;25200;53.394;10.414;2024-01-15T07:00:30;2.70;95.20
39519;DHT22;25200;53.394;10.414;2024-01-15T07:02:56;2.70;95.20
39519;DHT22;25200;53.394;10.414;2024-01-15T07:05:23;2.70;95.20
39519;DHT22;25200;53.394;10.414;2024-01-15T07:07:49;2.70;95.20
39519;DHT22;25200;53.394;10.414;2024-01-15T07:10:15;2.70;95.20
39519;DHT22;25200;53.394;10.414;2024-01-15T07:12:44;2.70;95.20
39519;DHT22;25200;53.394;10.414;2024-01-15T07:15:10;2.70;95.20
39519;DHT22;25200;53.394;10.414;2024-01-15T07:17:36;2.70;95.20
39519;DHT22;25200;53.394;10.414;2024-01-15T07:20:06;2.70;95.20
39519;DHT22;25200;53.394;10.414;2024-01-15T07:22:33;2.70;95.20
39519;DHT22;25200;53.394;10.414;2024-01-15T07:24:59;2.70;95.20
39519;DHT22;25200;53.394;10.414;2024-01-15T07:27:25;2.70;95.20
39519;DHT22;25200;53.394;10.414;2024-01-15T07:29:50;2.70;95.20
39519;DHT22;25200;53.394;10.414;2024-01-15T07:32:16;2.70;95.20
39519;DHT22;25200;53.394;10.414;2024-01-15T07:34:42;2.70;95.20
39519;DHT22;25200;53.394;10.414;2024-01-15T07:37:08;2.70;95.20
39519;DHT22;25200;53.394;10.414;2024-01-15T07:39:33;2.70;95.20
39519;DHT22;25200;53.394;10.414;2024-01-15T07:42:00;2.70;95.20
39519;DHT22;25200;53.394;10.414;2024-01-15T07:44:26;2.70;95.20
39519;DHT22;25200;53.394;10.414;2024-01-15T07:46:51;2.70;95.20
39519;DHT22;25200;53.394;10.414;2024-01-15T07:49:17;2.70;95.20
39519;DHT22;25200;53.394;10.414;2024-01-15T07:51:43;2.70;95.20
39519;DHT22;25200;53.394;10.414;2024-01-15T07:54:09;2.70;95.20
39519;DHT22;25200;53.394;10.414;2024-01-15T07:56:53;2.70;95.20
39519;DHT22;25200;53.394;10.414;2024-01-15T07:59:19;2.70;95.20
39519;DHT22;25200;53.394;10.414;2024-01-15T08:01:44;2.70;95.20
39519;DHT22;25200;53.394;10.414;2024-01-15T08:04:10;2.70;95.20
39519;DHT22;25200;53.394;10.414;2024-01-15T08:06:38;2.70;95.20
39519;DHT22;25200;53.394;10.414;2024-01-15T08:09:04;2.70;95.20
39519;DHT22;25200;53.394;10.414;2024-01-15T08:11:29;2.70;95.20
39519;DHT22;25200;53.394;10.414;2024-01-15T08:13:55;2.70;95.10
39519;DHT22;25200;53.394;10.414;2024-01-15T08:16:21;2.70;95.20
39519;DHT22;25200;53.394;10.414;2024-01-15T08:18:47;2.70;95.10
39519;DHT22;25200;53.394;10.414;2024-01-15T08:21:13;2.70;95.10
39519;DHT22;25200;53.394;10.414;2024-01-15T08:23:39;2.70;95.10
39519;DHT22;25200;53.394;10.414;2024-01-15T08:26:05;2.70;95.20
39519;DHT22;25200;53.394;10.414;2024-01-15T08:28:30;2.70;95.10
39519;DHT22;25200;53.394;10.414;2024-01-15T08:30:56;2.70;95.10
39519;DHT22;25200;53.394;10.414;2024-01-15T08:33:22;2.80;95.10
39519;DHT22;25200;53.394;10.414;2024-01-15T08:35:48;2.70;95.10
39519;DHT22;25200;53.394;10.414;2024-01-15T08:38:13;2.80;95.10
39519;DHT22;25200;53.394;10.414;2024-01-15T08:40:39;2.80;95.10
39519;DHT22;25200;53.394;10.414;2024-01-15T08:43:05;2.80;95.10
39519;DHT22;25200;53.394;10.414;2024-01-15T08:45:32;2.80;95.40
39519;DHT22;25200;53.394;10.414;2024-01-15T08:47:58;2.80;95.20
39519;DHT22;25200;53.394;10.414;2024-01-15T08:50:23;2.80;95.10
39519;DHT22;25200;53.394;10.414;2024-01-15T08:52:49;2.80;95.20
39519;DHT22;25200;53.394;10.414;2024-01-15T08:55:15;2.80;95.10
39519;DHT22;25200;53.394;10.414;2024-01-15T08:57:40;2.80;95.10
39519;DHT22;25200;53.394;10.414;2024-01-15T09:00:06;2.90;95.20
39519;DHT22;25200;53.394;10.414;2024-01-15T09:02:35;2.90;95.10
39519;DHT22;25200;53.394;10.414;2024-01-15T09:05:01;2.90;95.20
39519;DHT22;25200;53.394;10.414;2024-01-15T09:07:27;2.90;95.10
39519;DHT22;25200;53.394;10.414;2024-01-15T09:09:53;2.90;95.10
39519;DHT22;25200;53.394;10.414;2024-01-15T09:12:19;2.90;95.10
39519;DHT22;25200;53.394;10.414;2024-01-15T09:14:46;2.90;95.10
39519;DHT22;25200;53.394;10.414;2024-01-15T09:17:12;2.90;95.20
39519;DHT22;25200;53.394;10.414;2024-01-15T09:19:38;3.00;95.20
39519;DHT22;25200;53.394;10.414;2024-01-15T09:22:07;3.00;95.20
39519;DHT22;25200;53.394;10.414;2024-01-15T09:24:32;3.00;95.20
39519;DHT22;25200;53.394;10.414;2024-01-15T09:26:58;3.00;95.20
39519;DHT22;25200;53.394;10.414;2024-01-15T09:29:24;3.00;95.20
39519;DHT22;25200;53.394;10.414;2024-01-15T09:31:50;3.00;95.20
39519;DHT22;25200;53.394;10.414;2024-01-15T09:34:16;3.00;95.20
39519;DHT22;25200;53.394;10.414;2024-01-15T09:36:42;3.10;95.20
39519;DHT22;25200;53.394;10.414;2024-01-15T09:39:08;3.10;95.20
39519;DHT22;25200;53.394;10.414;2024-01-15T09:41:38;3.10;95.20
39519;DHT22;25200;53.394;10.414;2024-01-15T09:44:04;3.10;95.20
39519;DHT22;25200;53.394;10.414;2024-01-15T09:46:32;3.10;95.20
39519;DHT22;25200;53.394;10.414;2024-01-15T09:48:58;3.10;95.20
39519;DHT22;25200;53.394;10.414;2024-01-15T09:51:24;3.10;95.20
39519;DHT22;25200;53.394;10.414;2024-01-15T09:53:50;3.10;95.20
39519;DHT22;25200;53.394;10.414;2024-01-15T09:56:16;3.10;95.20
39519;DHT22;25200;53.394;10.414;2024-01-15T09:58:42;3.10;95.20
39519;DHT22;25200;53.394;10.414;2024-01-15T10:01:08;3.10;95.20
39519;DHT22;25200;53.394;10.414;2024-01-15T10:03:34;3.10;95.20
39519;DHT22;25200;53.394;10.414;2024-01-15T10:06:01;3.10;95.20
39519;DHT22;25200;53.394;10.414;2024-01-15T10:08:28;3.10;95.20
39519;DHT22;25200;53.394;10.414;2024-01-15T10:10:53;3.10;95.20
39519;DHT22;25200;53.394;10.414;2024-01-15T10:13:19;3.10;95.20
39519;DHT22;25200;53.394;10.414;2024-01-15T10:15:46;3.10;95.20
39519;DHT22;25200;53.394;10.414;2024-01-15T10:18:16;3.10;95.20
39519;DHT22;25200;53.394;10.414;2024-01-15T10:20:41;3.10;95.20
39519;DHT22;25200;53.394;10.414;2024-01-15T10:23:08;3.10;95.20
39519;DHT22;25200;53.394;10.414;2024-01-15T10:25:35;3.10;95.20
39519;DHT22;25200;53.394;10.414;2024-01-15T10:28:03;3.10;95.20
39519;DHT22;25200;53.394;10.414;2024-01-15T10:30:29;3.20;95.20
39519;DHT22;25200;53.394;10.414;2024-01-15T10:33:00;3.20;95.20
39519;DHT22;25200;53.394;10.414;2024-01-15T10:35:27;3.10;95.20
39519;DHT22;25200;53.394;10.414;2024-01-15T10:37:53;3.10;95.20
39519;DHT22;25200;53.394;10.414;2024-01-15T10:40:20;3.10;95.20
39519;DHT22;25200;53.394;10.414;2024-01-15T10:42:45;3.00;95.20
39519;DHT22;25200;53.394;10.414;2024-01-15T10:45:13;3.00;95.20
39519;DHT22;25200;53.394;10.414;2024-01-15T10:47:39;3.00;95.20
39519;DHT22;25200;53.394;10.414;2024-01-15T10:50:05;2.90;95.10
39519;DHT22;25200;53.394;10.414;2024-01-15T10:52:35;2.90;95.20
39519;DHT22;25200;53.394;10.414;2024-01-15T10:55:01;2.90;95.20
39519;DHT22;25200;53.394;10.414;2024-01-15T10:57:28;2.90;95.20
39519;DHT22;25200;53.394;10.414;2024-01-15T10:59:54;2.90;95.20
39519;DHT22;25200;53.394;10.414;2024-01-15T11:02:20;2.80;95.20
39519;DHT22;25200;53.394;10.414;2024-01-15T11:04:46;2.80;95.30
39519;DHT22;25200;53.394;10.414;2024-01-15T11:07:13;2.80;95.30
39519;DHT22;25200;53.394;10.414;2024-01-15T11:09:39;2.80;95.30
39519;DHT22;25200;53.394;10.414;2024-01-15T11:12:10;2.80;95.30
39519;DHT22;25200;53.394;10.414;2024-01-15T11:14:39;2.80;95.30
39519;DHT22;25200;53.394;10.414;2024-01-15T11:17:06;2.80;95.20
39519;DHT22;25200;53.394;10.414;2024-01-15T11:22:10;2.70;95.20
39519;DHT22;25200;53.394;10.414;2024-01-15T11:24:40;2.70;95.20
39519;DHT22;25200;53.394;10.414;2024-01-15T11:27:08;2.70;95.30
39519;DHT22;25200;53.394;10.414;2024-01-15T11:29:35;2.70;95.20
39519;DHT22;25200;53.394;10.414;2024-01-15T11:34:53;2.70;95.30
39519;DHT22;25200;53.394;10.414;2024-01-15T11:37:20;2.70;95.30
39519;DHT22;25200;53.394;10.414;2024-01-15T11:39:46;2.70;95.30
39519;DHT22;25200;53.394;10.414;2024-01-15T11:42:13;2.70;95.30
39519;DHT22;25200;53.394;10.414;2024-01-15T11:44:39;2.70;95.30
39519;DHT22;25200;53.394;10.414;2024-01-15T11:47:06;2.70;95.30
39519;DHT22;25200;53.394;10.414;2024-01-15T11:49:56;2.70;95.30
39519;DHT22;25200;53.394;10.414;2024-01-15T11:52:23;2.70;95.40
39519;DHT22;25200;53.394;10.414;2024-01-15T11:57:45;2.70;95.30
39519;DHT22;25200;53.394;10.414;2024-01-15T12:00:11;2.70;95.30
39519;DHT22;25200;53.394;10.414;2024-01-15T12:02:39;2.60;95.30
39519;DHT22;25200;53.394;10.414;2024-01-15T12:05:07;2.60;95.30
39519;DHT22;25200;53.394;10.414;2024-01-15T12:07:33;2.60;95.30
39519;DHT22;25200;53.394;10.414;2024-01-15T12:10:00;2.60;95.30
39519;DHT22;25200;53.394;10.414;2024-01-15T12:15:09;2.60;95.50
39519;DHT22;25200;53.394;10.414;2024-01-15T12:17:35;2.60;95.40
39519;DHT22;25200;53.394;10.414;2024-01-15T12:20:06;2.60;95.40
39519;DHT22;25200;53.394;10.414;2024-01-15T12:22:32;2.60;95.50
39519;DHT22;25200;53.394;10.414;2024-01-15T12:24:57;2.60;95.40
39519;DHT22;25200;53.394;10.414;2024-01-15T12:27:23;2.60;95.40
39519;DHT22;25200;53.394;10.414;2024-01-15T12:29:49;2.60;95.40
39519;DHT22;25200;53.394;10.414;2024-01-15T12:32:15;2.60;95.30
39519;DHT22;25200;53.394;10.414;2024-01-15T12:34:40;2.60;95.40
39519;DHT22;25200;53.394;10.414;2024-01-15T12:37:09;2.60;95.40
39519;DHT22;25200;53.394;10.414;2024-01-15T12:39:36;2.60;95.40
39519;DHT22;25200;53.394;10.414;2024-01-15T12:42:02;2.60;95.40
39519;DHT22;25200;53.394;10.414;2024-01-15T12:44:29;2.60;95.40
39519;DHT22;25200;53.394;10.414;2024-01-15T12:46:54;2.50;95.40
39519;DHT22;25200;53.394;10.414;2024-01-15T12:49:21;2.50;95.40
39519;DHT22;25200;53.394;10.414;2024-01-15T12:51:57;2.60;95.40
39519;DHT22;25200;53.394;10.414;2024-01-15T12:54:25;2.50;95.40
39519;DHT22;25200;53.394;10.414;2024-01-15T12:56:51;2.50;95.30
39519;DHT22;25200;53.394;10.414;2024-01-15T12:59:18;2.60;95.40
39519;DHT22;25200;53.394;10.414;2024-01-15T13:01:44;2.50;95.40
39519;DHT22;25200;53.394;10.414;2024-01-15T13:04:10;2.50;95.40
39519;DHT22;25200;53.394;10.414;2024-01-15T13:06:36;2.50;95.40
39519;DHT22;25200;53.394;10.414;2024-01-15T13:09:03;2.50;95.50
39519;DHT22;25200;53.394;10.414;2024-01-15T13:11:32;2.50;95.40
39519;DHT22;25200;53.394;10.414;2024-01-15T13:13:58;2.50;95.50
39519;DHT22;25200;53.394;10.414;2024-01-15T13:16:24;2.50;95.40
39519;DHT22;25200;53.394;10.414;2024-01-15T13:18:52;2.50;95.40
39519;DHT22;25200;53.394;10.414;2024-01-15T13:21:18;2.50;95.40
39519;DHT22;25200;53.394;10.414;2024-01-15T13:23:43;2.50;95.40
39519;DHT22;25200;53.394;10.414;2024-01-15T13:26:09;2.50;95.40
39519;DHT22;25200;53.394;10.414;2024-01-15T13:28:35;2.50;95.40
39519;DHT22;25200;53.394;10.414;2024-01-15T13:31:00;2.50;95.50
39519;DHT22;25200;53.394;10.414;2024-01-15T13:33:26;2.50;95.50
39519;DHT22;25200;53.394;10.414;2024-01-15T13:35:52;2.50;95.50
39519;DHT22;25200;53.394;10.414;2024-01-15T13:38:17;2.50;95.40
39519;DHT22;25200;53.394;10.414;2024-01-15T13:40:43;2.50;95.40
39519;DHT22;25200;53.394;10.414;2024-01-15T13:43:11;2.50;95.40
39519;DHT22;25200;53.394;10.414;2024-01-15T13:45:37;2.50;95.50
39519;DHT22;25200;53.394;10.414;2024-01-15T13:48:03;2.50;95.40
39519;DHT22;25200;53.394;10.414;2024-01-15T13:50:34;2.50;95.40
39519;DHT22;25200;53.394;10.414;2024-01-15T13:53:01;2.50;95.40
39519;DHT22;25200;53.394;10.414;2024-01-15T13:55:27;2.50;95.30
39519;DHT22;25200;53.394;10.414;2024-01-15T13:57:54;2.50;95.30
39519;DHT22;25200;53.394;10.414;2024-01-15T14:00:20;2.50;95.30
39519;DHT22;25200;53.394;10.414;2024-01-15T14:02:46;2.50;95.30
39519;DHT22;25200;53.394;10.414;2024-01-15T14:05:12;2.50;95.30
39519;DHT22;25200;53.394;10.414;2024-01-15T14:07:41;2.50;95.40
39519;DHT22;25200;53.394;10.414;2024-01-15T14:10:09;2.50;95.40
39519;DHT22;25200;53.394;10.414;2024-01-15T14:12:35;2.50;95.40
39519;DHT22;25200;53.394;10.414;2024-01-15T14:15:05;2.50;95.50
39519;DHT22;25200;53.394;10.414;2024-01-15T14:17:31;2.50;95.50
39519;DHT22;25200;53.394;10.414;2024-01-15T14:19:57;2.50;95.40
39519;DHT22;25200;53.394;10.414;2024-01-15T14:22:22;2.50;95.40
39519;DHT22;25200;53.394;10.414;2024-01-15T14:24:48;2.50;95.40
39519;DHT22;25200;53.394;10.414;2024-01-15T14:27:14;2.50;95.50
39519;DHT22;25200;53.394;10.414;2024-01-15T14:29:40;2.50;95.80
39519;DHT22;25200;53.394;10.414;2024-01-15T14:32:06;2.50;95.40
39519;DHT22;25200;53.394;10.414;2024-01-15T14:34:32;2.50;95.50
39519;DHT22;25200;53.394;10.414;2024-01-15T14:36:57;2.50;95.50
39519;DHT22;25200;53.394;10.414;2024-01-15T14:39:23;2.50;95.50
39519;DHT22;25200;53.394;10.414;2024-01-15T14:41:49;2.40;95.50
39519;DHT22;25200;53.394;10.414;2024-01-15T14:44:15;2.40;95.40
39519;DHT22;25200;53.394;10.414;2024-01-15T14:46:40;2.40;95.50
39519;DHT22;25200;53.394;10.414;2024-01-15T14:49:06;2.40;95.60
39519;DHT22;25200;53.394;10.414;2024-01-15T14:51:33;2.40;95.60
39519;DHT22;25200;53.394;10.414;2024-01-15T14:53:59;2.40;95.60
39519;DHT22;25200;53.394;10.414;2024-01-15T14:56:25;2.40;95.60
39519;DHT22;25200;53.394;10.414;2024-01-15T14:58:50;2.40;95.50
39519;DHT22;25200;53.394;10.414;2024-01-15T15:01:16;2.40;95.60
39519;DHT22;25200;53.394;10.414;2024-01-15T15:03:42;2.40;95.60
39519;DHT22;25200;53.394;10.414;2024-01-15T15:06:08;2.40;95.60
39519;DHT22;25200;53.394;10.414;2024-01-15T15:08:34;2.40;95.60
39519;DHT22;25200;53.394;10.414;2024-01-15T15:11:00;2.40;95.60
39519;DHT22;25200;53.394;10.414;2024-01-15T15:13:26;2.40;95.60
39519;DHT22;25200;53.394;10.414;2024-01-15T15:15:52;2.40;95.60
39519;DHT22;25200;53.394;10.414;2024-01-15T15:18:20;2.40;95.60
39519;DHT22;25200;53.394;10.414;2024-01-15T15:20:50;2.40;95.60
39519;DHT22;25200;53.394;10.414;2024-01-15T15:23:16;2.40;95.60
39519;DHT22;25200;53.394;10.414;2024-01-15T15:25:42;2.40;95.60
39519;DHT22;25200;53.394;10.414;2024-01-15T15:28:10;2.40;95.50
39519;DHT22;25200;53.394;10.414;2024-01-15T15:30:37;2.40;95.60
39519;DHT22;25200;53.394;10.414;2024-01-15T15:33:03;2.40;95.60
39519;DHT22;25200;53.394;10.414;2024-01-15T15:35:30;2.40;95.60